Vineyard Haven, Massachusetts
Current Conditions -  °F | °C
As of 4:53 PM on Thursday 27 Nov 2014 (Local Time) from KMVY Reporting Station
Light Rain Light Rain  
Wind Chill:   Ceiling: 5000
Heat Index:   Visibility: 10mi
Dew Point: -1°   Wind: 3mph
Humidity: 73%   Direction: 350°N
Pressure: 29.95"   Gusts: NA
Location:  41.46°N, 70.61°W
Report Text: KMVY 272153Z 35003KT 10SM -RA OVC050 04/M01 A2995 RMK AO2 RAB35 SLP143 P0000 T00391006
Loading
Personal Weather Stations






























Interactive Weather Map New forecast layout! Learn more

10-Day Weather Forecast

Advertisements
Track Severe Weather on mobile